Flight Track Log - Related Links

Times and Time Zones

All times are in EDT time to prevent confusion due to time zone crossing. See the N36DA flight status page for this flight to view local times or setup timezone preferences in your user account.

Time Position Orientation Groundspeed Altitude Reporting Facility
EDT Latitude Longitude Course Direction KTS MPH feet Rate Location/Type
Fri 01:13:24 PM 42.1375 -72.7256 253° West 158 182 1,000  Level Boston Center
Fri 01:14:01 PM 42.1289 -72.7647 253° West 176 203 1,900 1,385 Climbing Boston Center
Fri 01:15:08 PM 42.1286 -72.8572 270° West 230 265 3,400 1,756 Climbing Boston Center
Fri 01:16:04 PM 42.1283 -72.9411 270° West 270 311 5,500 2,069 Climbing Boston Center
Fri 01:17:04 PM 42.1281 -73.0253 270° West 259 298 7,400 2,250 Climbing Boston Center
Fri 01:18:04 PM 42.1294 -73.1317 271° West 259 298 10,000 2,050 Climbing Boston Center
Fri 01:19:04 PM 42.1267 -73.2267 268° West 268 308 11,500 1,450 Climbing Boston Center
Fri 01:20:04 PM 42.1217 -73.3358 267° West 282 325 12,900 1,400 Climbing Boston Center
Fri 01:21:04 PM 42.1125 -73.4419 263° West 301 346 14,300 1,364 Climbing Boston Center
Fri 01:22:16 PM 42.1028 -73.5817 265° West 315 362 15,900 727 Climbing Boston Center
Fri 01:23:16 PM 42.0742 -73.7211 255° West 320 368 15,900 45 Level Boston Center
Fri 01:24:28 PM 42.0375 -73.8267 245° Southwest 312 359 16,000 45 Climbing Boston Center
Fri 01:25:28 PM 42.0028 -73.9375 247° West 312 359 16,000  Level Boston Center
Fri 01:26:28 PM 41.9639 -74.0483 245° Southwest 312 359 16,000  Level Boston Center
Fri 01:27:28 PM 41.9311 -74.1508 247° West 307 353 16,000 50 Level Boston Center
Fri 01:28:28 PM 41.9006 -74.2392 245° Southwest 300 345 16,100  Climbing Boston Center
Fri 01:30:48 PM 41.8175 -74.4836 246° West 303 349 16,000 -30 Descending New York Center
Fri 01:31:46 PM 41.7875 -74.5767 247° West 303 349 16,000  Level New York Center
Fri 01:32:46 PM 41.7483 -74.6883 245° Southwest 303 349 16,000  Level New York Center
Fri 01:33:47 PM 41.7164 -74.7781 245° Southwest 303 349 16,000  Level New York Center
Fri 01:34:47 PM 41.6872 -74.8931 251° West 303 349 16,000  Level New York Center
Fri 01:35:48 PM 41.6708 -75.0058 259° West 303 349 16,000 -50 Level New York Center
Fri 01:36:46 PM 41.6506 -75.1044 255° West 308 354 15,900 -51 Descending New York Center
Fri 01:37:46 PM 41.6319 -75.2142 257° West 313 360 15,900 50 Level New York Center
Fri 01:38:47 PM 41.6108 -75.3350 257° West 313 360 16,000  Climbing New York Center
Fri 01:39:47 PM 41.5897 -75.4444 256° West 313 360 15,900 -50 Descending New York Center
Fri 01:40:47 PM 41.5714 -75.5431 256° West 313 360 15,900  Level New York Center
Fri 01:41:46 PM 41.5500 -75.6550 256° West 313 360 15,900  Level New York Center
Fri 01:42:46 PM 41.5283 -75.7781 257° West 313 360 15,900  Level New York Center
Fri 01:43:47 PM 41.5069 -75.8875 255° West 313 360 15,900  Level New York Center
Fri 01:44:48 PM 41.4853 -76.0019 256° West 313 360 15,900  Level New York Center
Fri 01:45:45 PM 41.4658 -76.1114 257° West 318 366 15,900  Level New York Center
Fri 01:46:46 PM 41.4442 -76.2203 255° West 313 360 15,900  Level New York Center
Fri 01:47:48 PM 41.4250 -76.3211 256° West 313 360 15,900  Level New York Center
Fri 01:48:46 PM 41.4006 -76.4436 255° West 313 360 15,900  Level New York Center
Fri 01:49:48 PM 41.3783 -76.5550 255° West 313 360 15,900  Level New York Center
Fri 01:50:46 PM 41.3564 -76.6664 255° West 313 360 15,900 -305 Level New York Center
Fri 01:51:46 PM 41.3222 -76.7658 245° Southwest 319 367 15,300 -1,109 Descending New York Center
Fri 01:52:45 PM 41.2794 -76.8697 241° Southwest 325 374 13,700 -1,600 Descending New York Center
Fri 01:53:46 PM 41.2392 -76.9625 240° Southwest 320 368 12,100 -1,686 Descending New York Center
Fri 01:54:46 PM 41.2008 -77.0556 241° Southwest 303 349 10,300 -1,587 Descending New York Center
Fri 01:55:47 PM 41.1650 -77.1406 241° Southwest 286 329 8,900 -1,574 Descending New York Center
Fri 01:56:48 PM 41.1294 -77.2225 240° Southwest 272 313 7,100 -1,815 Descending New York Center
Fri 01:57:46 PM 41.0936 -77.3072 241° Southwest 266 306 5,300 -1,525 Descending New York Center
Fri 01:58:46 PM 41.0572 -77.3975 242° Southwest 261 300 4,100 -595 Descending New York Center
Fri 01:59:47 PM 41.0256 -77.4769 242° Southwest 255 293 4,100 50 Level New York Center
Fri 02:00:47 PM 40.9969 -77.5428 240° Southwest 244 281 4,200 50 Climbing New York Center
Fri 02:01:48 PM 40.9681 -77.6114 241° Southwest 232 267 4,200 -50 Level New York Center
Fri 02:02:48 PM 40.9411 -77.6775 242° Southwest 225 259 4,100 -102 Descending New York Center
Fri 02:03:46 PM 40.9150 -77.7325 238° Southwest 202 232 4,000 -807 Descending New York Center
Fri 02:04:47 PM 40.8917 -77.7739 233° Southwest 173 199 2,500 -1,475 Descending New York Center
Fri 02:06:00 PM 40.8333 -77.8333 217° Southwest  Level FlightAware Approximate
Fri 02:13:00 PM 40.8493 -77.8487 217° Southwest  Level Estimated

Login

Don't have an account? Register now (free) for customized features, flight alerts, and more!